sensor_id;sensor_type;location;lat;lon;timestamp;P1;durP1;ratioP1;P2;durP2;ratioP2
11228;SDS011;5671;47.936;8.716;2022-10-16T03:34:26;2.63;;;1.60;;
11228;SDS011;5671;47.936;8.716;2022-10-16T03:37:13;3.70;;;1.90;;
11228;SDS011;5671;47.936;8.716;2022-10-16T03:39:51;5.20;;;1.80;;
11228;SDS011;5671;47.936;8.716;2022-10-16T05:39:52;1.83;;;1.47;;
11228;SDS011;5671;47.936;8.716;2022-10-16T05:42:51;3.30;;;1.40;;
11228;SDS011;5671;47.936;8.716;2022-10-16T05:45:25;1.47;;;1.37;;
11228;SDS011;5671;47.936;8.716;2022-10-16T05:47:59;6.27;;;1.90;;
11228;SDS011;5671;47.936;8.716;2022-10-16T05:50:35;3.10;;;1.60;;
11228;SDS011;5671;47.936;8.716;2022-10-16T06:07:04;2.03;;;1.30;;
11228;SDS011;5671;47.936;8.716;2022-10-16T06:09:33;6.33;;;1.60;;
11228;SDS011;5671;47.936;8.716;2022-10-16T06:18:34;4.43;;;1.80;;
11228;SDS011;5671;47.936;8.716;2022-10-16T07:05:13;3.03;;;2.10;;
11228;SDS011;5671;47.936;8.716;2022-10-16T07:25:09;6.17;;;3.83;;
11228;SDS011;5671;47.936;8.716;2022-10-16T07:51:24;4.60;;;2.93;;
11228;SDS011;5671;47.936;8.716;2022-10-16T07:54:16;4.77;;;3.00;;
11228;SDS011;5671;47.936;8.716;2022-10-16T08:03:29;2.97;;;1.60;;
11228;SDS011;5671;47.936;8.716;2022-10-16T08:16:13;3.23;;;1.33;;
11228;SDS011;5671;47.936;8.716;2022-10-16T10:53:06;1.90;;;1.70;;
11228;SDS011;5671;47.936;8.716;2022-10-16T11:18:58;4.70;;;1.57;;
11228;SDS011;5671;47.936;8.716;2022-10-16T11:21:28;1.47;;;1.33;;
11228;SDS011;5671;47.936;8.716;2022-10-16T11:43:40;4.63;;;1.67;;
11228;SDS011;5671;47.936;8.716;2022-10-16T12:06:27;5.70;;;1.90;;
11228;SDS011;5671;47.936;8.716;2022-10-16T12:09:03;1.80;;;1.40;;
11228;SDS011;5671;47.936;8.716;2022-10-16T12:11:32;2.47;;;1.40;;
11228;SDS011;5671;47.936;8.716;2022-10-16T12:14:19;4.27;;;1.33;;
11228;SDS011;5671;47.936;8.716;2022-10-16T12:17:36;2.43;;;1.50;;
11228;SDS011;5671;47.936;8.716;2022-10-16T14:04:24;1.37;;;1.07;;
11228;SDS011;5671;47.936;8.716;2022-10-16T14:07:50;1.30;;;1.20;;
11228;SDS011;5671;47.936;8.716;2022-10-16T14:10:52;2.33;;;1.67;;
11228;SDS011;5671;47.936;8.716;2022-10-16T14:13:31;1.40;;;1.30;;
11228;SDS011;5671;47.936;8.716;2022-10-16T14:16:16;0.80;;;0.80;;
11228;SDS011;5671;47.936;8.716;2022-10-16T14:18:55;1.50;;;1.13;;
11228;SDS011;5671;47.936;8.716;2022-10-16T14:21:33;1.13;;;0.80;;
11228;SDS011;5671;47.936;8.716;2022-10-16T14:24:30;3.87;;;1.43;;
11228;SDS011;5671;47.936;8.716;2022-10-16T14:27:00;3.67;;;1.30;;
11228;SDS011;5671;47.936;8.716;2022-10-16T14:30:01;3.10;;;1.20;;
11228;SDS011;5671;47.936;8.716;2022-10-16T14:32:53;3.53;;;1.00;;
11228;SDS011;5671;47.936;8.716;2022-10-16T14:35:28;2.67;;;1.07;;
11228;SDS011;5671;47.936;8.716;2022-10-16T14:37:59;1.43;;;1.33;;
11228;SDS011;5671;47.936;8.716;2022-10-16T14:40:29;3.20;;;0.83;;
11228;SDS011;5671;47.936;8.716;2022-10-16T14:42:58;2.67;;;1.37;;
11228;SDS011;5671;47.936;8.716;2022-10-16T14:45:32;1.63;;;1.00;;
11228;SDS011;5671;47.936;8.716;2022-10-16T14:48:02;1.90;;;1.30;;
11228;SDS011;5671;47.936;8.716;2022-10-16T14:50:32;1.07;;;1.00;;
11228;SDS011;5671;47.936;8.716;2022-10-16T14:53:04;2.00;;;1.10;;
11228;SDS011;5671;47.936;8.716;2022-10-16T14:55:36;2.53;;;1.13;;
11228;SDS011;5671;47.936;8.716;2022-10-16T14:58:03;1.20;;;1.10;;
11228;SDS011;5671;47.936;8.716;2022-10-16T15:00:31;4.03;;;1.17;;
11228;SDS011;5671;47.936;8.716;2022-10-16T15:02:58;1.73;;;1.13;;
11228;SDS011;5671;47.936;8.716;2022-10-16T15:05:25;1.00;;;1.00;;
11228;SDS011;5671;47.936;8.716;2022-10-16T15:07:54;3.53;;;1.50;;
11228;SDS011;5671;47.936;8.716;2022-10-16T15:13:13;2.53;;;0.93;;
11228;SDS011;5671;47.936;8.716;2022-10-16T15:15:44;2.73;;;1.00;;
11228;SDS011;5671;47.936;8.716;2022-10-16T15:18:39;4.63;;;1.40;;
11228;SDS011;5671;47.936;8.716;2022-10-16T15:21:06;2.83;;;1.47;;
11228;SDS011;5671;47.936;8.716;2022-10-16T15:23:33;1.33;;;1.00;;
11228;SDS011;5671;47.936;8.716;2022-10-16T15:26:01;2.53;;;1.50;;
11228;SDS011;5671;47.936;8.716;2022-10-16T15:28:29;2.73;;;1.17;;
11228;SDS011;5671;47.936;8.716;2022-10-16T15:31:00;1.40;;;1.00;;
11228;SDS011;5671;47.936;8.716;2022-10-16T15:36:31;2.17;;;1.57;;
11228;SDS011;5671;47.936;8.716;2022-10-16T15:39:01;1.50;;;1.00;;
11228;SDS011;5671;47.936;8.716;2022-10-16T15:41:30;4.03;;;1.00;;
11228;SDS011;5671;47.936;8.716;2022-10-16T15:43:57;2.53;;;1.27;;
11228;SDS011;5671;47.936;8.716;2022-10-16T15:46:36;2.83;;;1.43;;
11228;SDS011;5671;47.936;8.716;2022-10-16T15:49:05;3.20;;;1.30;;
11228;SDS011;5671;47.936;8.716;2022-10-16T15:51:37;1.80;;;1.10;;
11228;SDS011;5671;47.936;8.716;2022-10-16T15:54:06;3.73;;;1.40;;
11228;SDS011;5671;47.936;8.716;2022-10-16T15:56:34;2.43;;;1.20;;
11228;SDS011;5671;47.936;8.716;2022-10-16T15:59:02;2.70;;;1.40;;
11228;SDS011;5671;47.936;8.716;2022-10-16T16:01:32;13.60;;;1.50;;
11228;SDS011;5671;47.936;8.716;2022-10-16T16:04:00;5.30;;;1.57;;
11228;SDS011;5671;47.936;8.716;2022-10-16T16:06:27;3.77;;;1.20;;
11228;SDS011;5671;47.936;8.716;2022-10-16T16:08:54;3.53;;;1.27;;
11228;SDS011;5671;47.936;8.716;2022-10-16T16:11:23;2.03;;;1.20;;
11228;SDS011;5671;47.936;8.716;2022-10-16T16:13:54;6.00;;;1.33;;
11228;SDS011;5671;47.936;8.716;2022-10-16T16:16:21;1.43;;;1.00;;
11228;SDS011;5671;47.936;8.716;2022-10-16T16:19:00;12.03;;;2.20;;
11228;SDS011;5671;47.936;8.716;2022-10-16T16:21:53;1.47;;;0.93;;
11228;SDS011;5671;47.936;8.716;2022-10-16T16:24:23;24.47;;;2.73;;
11228;SDS011;5671;47.936;8.716;2022-10-16T16:27:03;8.33;;;1.90;;
11228;SDS011;5671;47.936;8.716;2022-10-16T16:29:32;5.40;;;1.23;;
11228;SDS011;5671;47.936;8.716;2022-10-16T16:32:00;3.30;;;1.10;;
11228;SDS011;5671;47.936;8.716;2022-10-16T16:34:28;4.23;;;1.47;;
11228;SDS011;5671;47.936;8.716;2022-10-16T16:36:55;3.13;;;1.10;;
11228;SDS011;5671;47.936;8.716;2022-10-16T16:39:22;4.67;;;1.43;;
11228;SDS011;5671;47.936;8.716;2022-10-16T16:41:50;5.03;;;1.10;;
11228;SDS011;5671;47.936;8.716;2022-10-16T16:44:23;5.20;;;1.60;;
11228;SDS011;5671;47.936;8.716;2022-10-16T16:46:54;2.77;;;1.60;;
11228;SDS011;5671;47.936;8.716;2022-10-16T16:49:44;7.47;;;1.53;;
11228;SDS011;5671;47.936;8.716;2022-10-16T16:52:19;5.93;;;2.00;;
11228;SDS011;5671;47.936;8.716;2022-10-16T16:55:21;6.10;;;1.50;;
11228;SDS011;5671;47.936;8.716;2022-10-16T16:58:17;4.80;;;1.50;;
11228;SDS011;5671;47.936;8.716;2022-10-16T17:01:00;7.60;;;1.80;;
11228;SDS011;5671;47.936;8.716;2022-10-16T17:03:36;7.53;;;1.90;;
11228;SDS011;5671;47.936;8.716;2022-10-16T17:06:04;7.47;;;2.07;;
11228;SDS011;5671;47.936;8.716;2022-10-16T17:08:33;5.87;;;1.50;;
11228;SDS011;5671;47.936;8.716;2022-10-16T17:11:11;10.80;;;4.37;;
11228;SDS011;5671;47.936;8.716;2022-10-16T17:13:39;10.87;;;5.10;;
11228;SDS011;5671;47.936;8.716;2022-10-16T17:16:07;2.77;;;2.50;;
11228;SDS011;5671;47.936;8.716;2022-10-16T17:18:36;6.23;;;3.40;;
11228;SDS011;5671;47.936;8.716;2022-10-16T17:21:04;8.83;;;2.27;;
11228;SDS011;5671;47.936;8.716;2022-10-16T17:23:39;3.23;;;1.60;;
11228;SDS011;5671;47.936;8.716;2022-10-16T17:29:33;6.43;;;1.37;;
11228;SDS011;5671;47.936;8.716;2022-10-16T17:32:11;8.60;;;1.33;;
11228;SDS011;5671;47.936;8.716;2022-10-16T17:34:39;5.03;;;1.20;;
11228;SDS011;5671;47.936;8.716;2022-10-16T17:37:06;2.13;;;1.37;;
11228;SDS011;5671;47.936;8.716;2022-10-16T17:39:38;2.77;;;1.60;;
11228;SDS011;5671;47.936;8.716;2022-10-16T17:42:07;4.17;;;1.63;;
11228;SDS011;5671;47.936;8.716;2022-10-16T17:44:36;4.83;;;1.63;;
11228;SDS011;5671;47.936;8.716;2022-10-16T17:47:03;7.33;;;1.40;;
11228;SDS011;5671;47.936;8.716;2022-10-16T17:49:33;7.20;;;1.70;;
11228;SDS011;5671;47.936;8.716;2022-10-16T17:52:05;5.73;;;1.60;;
11228;SDS011;5671;47.936;8.716;2022-10-16T17:54:32;5.03;;;1.50;;
11228;SDS011;5671;47.936;8.716;2022-10-16T17:56:59;2.60;;;1.53;;
11228;SDS011;5671;47.936;8.716;2022-10-16T17:59:26;11.47;;;1.80;;
11228;SDS011;5671;47.936;8.716;2022-10-16T18:01:55;5.90;;;1.90;;
11228;SDS011;5671;47.936;8.716;2022-10-16T18:04:25;9.57;;;1.70;;
11228;SDS011;5671;47.936;8.716;2022-10-16T18:06:52;5.43;;;1.70;;
11228;SDS011;5671;47.936;8.716;2022-10-16T18:09:25;5.00;;;1.50;;
11228;SDS011;5671;47.936;8.716;2022-10-16T18:11:53;8.63;;;2.10;;
11228;SDS011;5671;47.936;8.716;2022-10-16T18:14:24;6.03;;;2.13;;
11228;SDS011;5671;47.936;8.716;2022-10-16T18:16:54;4.30;;;2.23;;
11228;SDS011;5671;47.936;8.716;2022-10-16T18:19:21;3.90;;;2.10;;
11228;SDS011;5671;47.936;8.716;2022-10-16T18:21:49;4.53;;;1.57;;
11228;SDS011;5671;47.936;8.716;2022-10-16T18:24:16;4.43;;;1.67;;
11228;SDS011;5671;47.936;8.716;2022-10-16T18:26:50;2.33;;;1.43;;
11228;SDS011;5671;47.936;8.716;2022-10-16T18:29:20;4.50;;;1.23;;
11228;SDS011;5671;47.936;8.716;2022-10-16T18:31:55;6.30;;;1.70;;
11228;SDS011;5671;47.936;8.716;2022-10-16T18:34:22;5.20;;;1.63;;
11228;SDS011;5671;47.936;8.716;2022-10-16T18:36:51;5.27;;;1.50;;
11228;SDS011;5671;47.936;8.716;2022-10-16T18:39:19;10.37;;;1.83;;
11228;SDS011;5671;47.936;8.716;2022-10-16T18:41:48;4.03;;;1.33;;
11228;SDS011;5671;47.936;8.716;2022-10-16T18:44:19;8.30;;;1.70;;
11228;SDS011;5671;47.936;8.716;2022-10-16T18:46:46;5.63;;;1.50;;
11228;SDS011;5671;47.936;8.716;2022-10-16T18:49:13;3.53;;;1.80;;
11228;SDS011;5671;47.936;8.716;2022-10-16T18:51:40;3.47;;;1.70;;
11228;SDS011;5671;47.936;8.716;2022-10-16T18:54:08;5.67;;;2.00;;
11228;SDS011;5671;47.936;8.716;2022-10-16T18:56:37;4.90;;;2.83;;
11228;SDS011;5671;47.936;8.716;2022-10-16T18:59:06;4.73;;;2.87;;
11228;SDS011;5671;47.936;8.716;2022-10-16T19:01:34;8.47;;;3.60;;
11228;SDS011;5671;47.936;8.716;2022-10-16T19:04:07;8.67;;;2.63;;
11228;SDS011;5671;47.936;8.716;2022-10-16T19:06:36;15.87;;;2.60;;
11228;SDS011;5671;47.936;8.716;2022-10-16T19:09:04;5.10;;;2.40;;
11228;SDS011;5671;47.936;8.716;2022-10-16T19:11:34;9.47;;;1.80;;
11228;SDS011;5671;47.936;8.716;2022-10-16T19:14:01;4.67;;;1.60;;
11228;SDS011;5671;47.936;8.716;2022-10-16T19:16:31;3.27;;;1.50;;
11228;SDS011;5671;47.936;8.716;2022-10-16T19:19:09;4.20;;;1.97;;
11228;SDS011;5671;47.936;8.716;2022-10-16T19:21:43;6.77;;;1.73;;
11228;SDS011;5671;47.936;8.716;2022-10-16T19:24:15;3.70;;;1.40;;
11228;SDS011;5671;47.936;8.716;2022-10-16T19:26:46;7.70;;;1.70;;
11228;SDS011;5671;47.936;8.716;2022-10-16T19:29:17;6.10;;;2.37;;
11228;SDS011;5671;47.936;8.716;2022-10-16T19:31:45;5.80;;;2.27;;
11228;SDS011;5671;47.936;8.716;2022-10-16T19:34:12;2.93;;;2.00;;
11228;SDS011;5671;47.936;8.716;2022-10-16T19:36:39;9.50;;;1.77;;
11228;SDS011;5671;47.936;8.716;2022-10-16T19:39:07;7.27;;;1.77;;
11228;SDS011;5671;47.936;8.716;2022-10-16T19:41:40;9.00;;;2.23;;
11228;SDS011;5671;47.936;8.716;2022-10-16T19:44:12;11.60;;;2.43;;
11228;SDS011;5671;47.936;8.716;2022-10-16T19:46:40;6.90;;;2.37;;
11228;SDS011;5671;47.936;8.716;2022-10-16T19:49:10;3.40;;;2.00;;
11228;SDS011;5671;47.936;8.716;2022-10-16T19:51:46;4.23;;;1.80;;
11228;SDS011;5671;47.936;8.716;2022-10-16T19:54:16;10.73;;;2.07;;
11228;SDS011;5671;47.936;8.716;2022-10-16T19:56:43;8.17;;;1.80;;
11228;SDS011;5671;47.936;8.716;2022-10-16T19:59:11;2.97;;;2.17;;
11228;SDS011;5671;47.936;8.716;2022-10-16T20:01:41;7.10;;;1.80;;
11228;SDS011;5671;47.936;8.716;2022-10-16T20:04:09;5.83;;;1.90;;
11228;SDS011;5671;47.936;8.716;2022-10-16T20:06:38;13.87;;;2.83;;
11228;SDS011;5671;47.936;8.716;2022-10-16T20:09:05;6.63;;;2.77;;
11228;SDS011;5671;47.936;8.716;2022-10-16T20:11:35;6.47;;;2.53;;
11228;SDS011;5671;47.936;8.716;2022-10-16T20:14:02;5.57;;;2.40;;
11228;SDS011;5671;47.936;8.716;2022-10-16T20:23:29;7.53;;;3.77;;
11228;SDS011;5671;47.936;8.716;2022-10-16T21:04:39;6.17;;;1.97;;
11228;SDS011;5671;47.936;8.716;2022-10-16T21:07:06;2.50;;;1.87;;
11228;SDS011;5671;47.936;8.716;2022-10-16T21:09:42;1.50;;;1.40;;
11228;SDS011;5671;47.936;8.716;2022-10-16T21:12:09;2.00;;;1.80;;
11228;SDS011;5671;47.936;8.716;2022-10-16T21:14:36;3.47;;;1.70;;
11228;SDS011;5671;47.936;8.716;2022-10-16T21:17:05;2.20;;;1.43;;
11228;SDS011;5671;47.936;8.716;2022-10-16T21:19:34;2.40;;;1.30;;
11228;SDS011;5671;47.936;8.716;2022-10-16T21:22:03;5.30;;;1.60;;
11228;SDS011;5671;47.936;8.716;2022-10-16T21:24:36;5.90;;;1.63;;
11228;SDS011;5671;47.936;8.716;2022-10-16T21:27:04;4.63;;;1.73;;
11228;SDS011;5671;47.936;8.716;2022-10-16T21:29:33;2.97;;;1.47;;
11228;SDS011;5671;47.936;8.716;2022-10-16T21:32:00;5.80;;;1.43;;
11228;SDS011;5671;47.936;8.716;2022-10-16T21:34:27;3.77;;;1.50;;
11228;SDS011;5671;47.936;8.716;2022-10-16T21:36:55;2.70;;;1.43;;
11228;SDS011;5671;47.936;8.716;2022-10-16T21:39:22;5.17;;;1.90;;
11228;SDS011;5671;47.936;8.716;2022-10-16T21:41:50;1.43;;;1.33;;
11228;SDS011;5671;47.936;8.716;2022-10-16T21:44:18;3.57;;;1.60;;
11228;SDS011;5671;47.936;8.716;2022-10-16T21:46:45;1.50;;;1.40;;
11228;SDS011;5671;47.936;8.716;2022-10-16T21:49:13;3.87;;;2.27;;
11228;SDS011;5671;47.936;8.716;2022-10-16T21:51:44;4.20;;;1.67;;
11228;SDS011;5671;47.936;8.716;2022-10-16T21:54:15;1.50;;;1.40;;
11228;SDS011;5671;47.936;8.716;2022-10-16T21:56:44;6.33;;;1.40;;
11228;SDS011;5671;47.936;8.716;2022-10-16T21:59:11;6.00;;;1.77;;
11228;SDS011;5671;47.936;8.716;2022-10-16T22:01:39;7.17;;;1.90;;
11228;SDS011;5671;47.936;8.716;2022-10-16T22:04:08;4.00;;;1.50;;
11228;SDS011;5671;47.936;8.716;2022-10-16T22:06:35;3.73;;;1.80;;
11228;SDS011;5671;47.936;8.716;2022-10-16T22:09:02;5.60;;;1.83;;
11228;SDS011;5671;47.936;8.716;2022-10-16T22:11:32;2.90;;;1.80;;
11228;SDS011;5671;47.936;8.716;2022-10-16T22:14:02;6.20;;;1.60;;
11228;SDS011;5671;47.936;8.716;2022-10-16T22:16:30;7.53;;;1.90;;
11228;SDS011;5671;47.936;8.716;2022-10-16T22:18:57;6.90;;;1.77;;
11228;SDS011;5671;47.936;8.716;2022-10-16T22:21:27;2.33;;;1.13;;
11228;SDS011;5671;47.936;8.716;2022-10-16T22:23:57;1.67;;;1.10;;
11228;SDS011;5671;47.936;8.716;2022-10-16T22:26:25;3.80;;;1.20;;
11228;SDS011;5671;47.936;8.716;2022-10-16T22:28:53;3.00;;;1.30;;
11228;SDS011;5671;47.936;8.716;2022-10-16T22:31:21;1.83;;;0.80;;
11228;SDS011;5671;47.936;8.716;2022-10-16T22:33:52;1.77;;;1.10;;
11228;SDS011;5671;47.936;8.716;2022-10-16T22:36:20;4.07;;;0.70;;
11228;SDS011;5671;47.936;8.716;2022-10-16T22:38:47;2.10;;;0.63;;
11228;SDS011;5671;47.936;8.716;2022-10-16T22:41:14;0.70;;;0.70;;
11228;SDS011;5671;47.936;8.716;2022-10-16T22:43:42;2.83;;;1.00;;
11228;SDS011;5671;47.936;8.716;2022-10-16T22:46:27;0.70;;;0.70;;
11228;SDS011;5671;47.936;8.716;2022-10-16T22:48:55;1.80;;;0.57;;
11228;SDS011;5671;47.936;8.716;2022-10-16T22:51:22;2.83;;;0.80;;
11228;SDS011;5671;47.936;8.716;2022-10-16T22:53:50;0.80;;;0.80;;
11228;SDS011;5671;47.936;8.716;2022-10-16T22:56:18;0.87;;;0.70;;
11228;SDS011;5671;47.936;8.716;2022-10-16T22:58:46;0.60;;;0.60;;
11228;SDS011;5671;47.936;8.716;2022-10-16T23:01:15;0.80;;;0.60;;
11228;SDS011;5671;47.936;8.716;2022-10-16T23:03:46;2.13;;;0.80;;
11228;SDS011;5671;47.936;8.716;2022-10-16T23:06:13;3.87;;;0.87;;
11228;SDS011;5671;47.936;8.716;2022-10-16T23:08:40;2.53;;;1.23;;
11228;SDS011;5671;47.936;8.716;2022-10-16T23:11:07;0.90;;;0.90;;
11228;SDS011;5671;47.936;8.716;2022-10-16T23:13:36;0.73;;;0.70;;
11228;SDS011;5671;47.936;8.716;2022-10-16T23:16:04;2.37;;;0.80;;
11228;SDS011;5671;47.936;8.716;2022-10-16T23:18:32;7.10;;;1.10;;
11228;SDS011;5671;47.936;8.716;2022-10-16T23:21:04;2.03;;;0.90;;
11228;SDS011;5671;47.936;8.716;2022-10-16T23:23:32;2.57;;;1.13;;
11228;SDS011;5671;47.936;8.716;2022-10-16T23:26:00;1.73;;;1.10;;
11228;SDS011;5671;47.936;8.716;2022-10-16T23:28:27;2.17;;;0.93;;
11228;SDS011;5671;47.936;8.716;2022-10-16T23:30:54;1.30;;;1.17;;
11228;SDS011;5671;47.936;8.716;2022-10-16T23:33:21;1.73;;;0.80;;
11228;SDS011;5671;47.936;8.716;2022-10-16T23:35:48;1.97;;;1.10;;
11228;SDS011;5671;47.936;8.716;2022-10-16T23:38:16;19.23;;;1.60;;
11228;SDS011;5671;47.936;8.716;2022-10-16T23:40:43;15.20;;;1.63;;
11228;SDS011;5671;47.936;8.716;2022-10-16T23:43:10;1.37;;;1.30;;
11228;SDS011;5671;47.936;8.716;2022-10-16T23:45:37;6.00;;;1.83;;
11228;SDS011;5671;47.936;8.716;2022-10-16T23:48:04;10.33;;;1.47;;
11228;SDS011;5671;47.936;8.716;2022-10-16T23:50:33;2.80;;;1.50;;
11228;SDS011;5671;47.936;8.716;2022-10-16T23:53:00;2.03;;;1.27;;
11228;SDS011;5671;47.936;8.716;2022-10-16T23:55:31;3.90;;;1.43;;
11228;SDS011;5671;47.936;8.716;2022-10-16T23:57:58;2.17;;;1.60;;
